createdAt,value
2018-05-03T00:00:41.914Z,92.90
2018-05-03T00:03:09.393Z,92.90
2018-05-03T00:05:36.873Z,93.20
2018-05-03T00:08:04.350Z,93.60
2018-05-03T00:10:32.590Z,93.60
2018-05-03T00:13:00.070Z,93.60
2018-05-03T00:15:27.541Z,93.00
2018-05-03T00:17:55.783Z,92.70
2018-05-03T00:20:23.250Z,92.70
2018-05-03T00:22:50.720Z,92.50
2018-05-03T00:25:18.338Z,92.60
2018-05-03T00:27:45.809Z,92.50
2018-05-03T00:30:14.051Z,92.70
2018-05-03T00:32:41.531Z,92.40
2018-05-03T00:35:09.002Z,92.50
2018-05-03T00:37:36.481Z,92.70
2018-05-03T00:40:03.948Z,93.10
2018-05-03T00:42:32.198Z,93.40
2018-05-03T00:44:59.671Z,93.40
2018-05-03T00:47:27.152Z,93.70
2018-05-03T00:49:54.629Z,94.00
2018-05-03T00:52:22.105Z,93.70
2018-05-03T00:54:49.570Z,93.70
2018-05-03T00:57:17.042Z,93.80
2018-05-03T00:59:45.337Z,94.00
2018-05-03T01:02:13.585Z,94.00
2018-05-03T01:04:41.060Z,94.00
2018-05-03T01:07:08.547Z,93.80
2018-05-03T01:09:36.023Z,93.80
2018-05-03T01:12:03.502Z,93.70
2018-05-03T01:14:30.975Z,93.50
2018-05-03T01:16:58.443Z,93.40
2018-05-03T01:19:25.928Z,93.40
2018-05-03T01:21:53.398Z,93.30
2018-05-03T01:24:20.862Z,93.40
2018-05-03T01:26:48.343Z,93.40
2018-05-03T01:29:15.820Z,94.00
2018-05-03T01:31:43.289Z,94.60
2018-05-03T01:34:10.769Z,94.70
2018-05-03T01:36:39.007Z,94.60
2018-05-03T01:39:06.490Z,94.60
2018-05-03T01:41:34.738Z,94.70
2018-05-03T01:44:02.214Z,94.60
2018-05-03T01:46:29.725Z,94.70
2018-05-03T01:48:57.201Z,94.90
2018-05-03T01:51:24.670Z,95.00
2018-05-03T01:53:52.923Z,95.10
2018-05-03T01:56:20.395Z,95.10
2018-05-03T01:58:47.881Z,95.30
2018-05-03T02:01:16.124Z,96.50
2018-05-03T02:03:43.601Z,96.40
2018-05-03T02:06:11.066Z,96.90
2018-05-03T02:08:39.315Z,97.50
2018-05-03T02:11:06.786Z,97.40
2018-05-03T02:13:34.257Z,97.20
2018-05-03T02:16:02.485Z,97.20
2018-05-03T02:18:29.945Z,97.10
2018-05-03T02:20:57.406Z,97.40
2018-05-03T02:23:24.866Z,97.70
2018-05-03T02:25:52.342Z,98.00
2018-05-03T02:28:19.810Z,98.10
2018-05-03T02:30:47.270Z,98.10
2018-05-03T02:33:15.509Z,97.40
2018-05-03T02:35:42.982Z,97.30
2018-05-03T02:38:10.446Z,97.10
2018-05-03T02:40:37.921Z,97.00
2018-05-03T02:43:06.163Z,97.30
2018-05-03T02:45:34.411Z,97.10
2018-05-03T02:48:01.895Z,97.10
2018-05-03T02:50:29.388Z,96.80
2018-05-03T02:52:57.625Z,96.90
2018-05-03T02:55:25.099Z,96.90
2018-05-03T02:58:10.214Z,97.00
2018-05-03T03:00:55.402Z,97.20
2018-05-03T03:03:40.702Z,97.10
2018-05-03T03:06:20.197Z,97.20
2018-05-03T03:09:12.367Z,97.30
2018-05-03T03:11:57.647Z,97.40
2018-05-03T03:14:42.689Z,97.70
2018-05-03T03:17:27.982Z,97.90
2018-05-03T03:20:13.947Z,98.10
2018-05-03T03:22:59.142Z,98.10
2018-05-03T03:29:00.773Z,98.10
2018-05-03T03:31:45.855Z,98.10
2018-05-03T03:34:19.977Z,98.20
2018-05-03T03:37:26.101Z,98.20
2018-05-03T03:40:11.254Z,97.80
2018-05-03T03:45:47.151Z,98.50
2018-05-03T03:48:15.430Z,99.40
2018-05-03T03:50:42.895Z,99.10
2018-05-03T03:53:11.218Z,99.30
2018-05-03T03:55:38.681Z,99.30
2018-05-03T03:58:06.210Z,99.40
2018-05-03T04:00:33.675Z,99.50
2018-05-03T04:03:01.195Z,99.70
2018-05-03T04:05:29.432Z,99.80
2018-05-03T04:07:56.962Z,99.70
2018-05-03T04:10:24.434Z,99.50
2018-05-03T04:12:52.683Z,98.90
2018-05-03T04:15:20.215Z,98.80
2018-05-03T04:17:59.572Z,98.70
2018-05-03T04:20:52.773Z,98.60
2018-05-03T04:23:42.924Z,98.50
2018-05-03T04:26:11.166Z,98.00
2018-05-03T04:28:38.659Z,97.90
2018-05-03T04:31:06.155Z,97.70
2018-05-03T04:33:33.637Z,97.40
2018-05-03T04:36:01.118Z,97.10
2018-05-03T04:38:28.603Z,97.10
2018-05-03T04:40:56.095Z,96.90
2018-05-03T04:43:23.571Z,96.90
2018-05-03T04:45:51.044Z,97.20
2018-05-03T04:48:18.583Z,97.40
2018-05-03T04:50:46.528Z,97.20
2018-05-03T04:53:14.967Z,97.20
2018-05-03T04:55:43.248Z,97.20
2018-05-03T04:58:10.726Z,97.20
2018-05-03T05:00:38.235Z,97.10
2018-05-03T05:03:05.709Z,96.10
2018-05-03T05:05:33.947Z,94.30
2018-05-03T05:08:01.432Z,94.30
2018-05-03T05:10:28.917Z,93.40
2018-05-03T05:12:56.442Z,92.30
2018-05-03T05:15:24.017Z,90.80
2018-05-03T05:17:51.687Z,89.60
2018-05-03T05:20:19.188Z,85.90
2018-05-03T05:22:46.685Z,86.00
2018-05-03T05:25:14.159Z,87.40
2018-05-03T05:27:41.663Z,87.70
2018-05-03T05:30:09.147Z,84.10
2018-05-03T05:32:36.620Z,80.60
2018-05-03T05:35:04.189Z,77.70
2018-05-03T05:37:31.670Z,76.40
2018-05-03T05:39:59.142Z,76.70
2018-05-03T05:42:26.619Z,74.80
2018-05-03T05:44:54.136Z,73.70
2018-05-03T05:47:21.616Z,69.80
2018-05-03T05:49:49.208Z,71.20
2018-05-03T05:52:16.683Z,69.40
2018-05-03T05:54:44.155Z,72.40
2018-05-03T05:57:11.639Z,69.10
2018-05-03T05:59:39.119Z,67.50
2018-05-03T06:02:06.599Z,66.60
2018-05-03T06:04:34.222Z,66.10
2018-05-03T06:07:02.537Z,65.10
2018-05-03T06:09:30.081Z,65.10
2018-05-03T06:11:57.657Z,65.60
2018-05-03T06:14:25.165Z,66.00
2018-05-03T06:16:52.630Z,65.80
2018-05-03T06:19:20.116Z,64.40
2018-05-03T06:21:47.590Z,65.50
2018-05-03T06:24:15.067Z,64.60
2018-05-03T06:26:42.572Z,65.00
2018-05-03T06:29:10.049Z,65.70
2018-05-03T06:31:37.526Z,64.00
2018-05-03T06:34:05.019Z,66.60
2018-05-03T06:36:32.497Z,64.50
2018-05-03T06:38:59.977Z,62.70
2018-05-03T06:41:27.459Z,60.80
2018-05-03T06:43:55.002Z,62.00
2018-05-03T06:46:22.561Z,62.00
2018-05-03T06:48:50.135Z,62.20
2018-05-03T06:51:17.617Z,61.00
2018-05-03T06:53:45.124Z,61.20
2018-05-03T06:56:12.698Z,60.20
2018-05-03T06:58:40.273Z,60.40
2018-05-03T07:01:07.686Z,59.10
2018-05-03T07:03:35.247Z,58.00
2018-05-03T07:06:02.768Z,58.60
2018-05-03T07:08:31.009Z,56.50
2018-05-03T07:10:58.520Z,56.50
2018-05-03T07:13:26.002Z,54.10
2018-05-03T07:15:53.565Z,55.00
2018-05-03T07:18:21.796Z,52.90
2018-05-03T07:20:49.366Z,52.80
2018-05-03T07:23:16.858Z,53.30
2018-05-03T07:25:44.434Z,52.50
2018-05-03T07:28:11.919Z,51.60
2018-05-03T07:30:39.419Z,49.90
2018-05-03T07:33:06.886Z,48.90
2018-05-03T07:35:34.391Z,45.70
2018-05-03T07:38:01.863Z,43.60
2018-05-03T07:40:29.340Z,41.80
2018-05-03T07:42:56.855Z,40.00
2018-05-03T07:45:24.340Z,40.10
2018-05-03T07:47:51.924Z,39.60
2018-05-03T07:50:19.404Z,40.30
2018-05-03T07:52:46.882Z,41.00
2018-05-03T07:55:14.367Z,40.90
2018-05-03T07:57:41.852Z,43.80
2018-05-03T08:00:09.328Z,44.70
2018-05-03T08:02:36.835Z,46.40
2018-05-03T08:05:04.318Z,48.10
2018-05-03T08:07:31.799Z,49.60
2018-05-03T08:09:59.271Z,48.60
2018-05-03T08:12:26.836Z,49.80
2018-05-03T08:14:54.243Z,50.00
2018-05-03T08:17:21.826Z,49.60
2018-05-03T08:19:49.307Z,51.80
2018-05-03T08:22:16.868Z,51.30
2018-05-03T08:24:44.281Z,50.80
2018-05-03T08:27:11.756Z,50.40
2018-05-03T08:29:39.348Z,48.20
2018-05-03T08:32:06.820Z,47.60
2018-05-03T08:34:34.294Z,48.00
2018-05-03T08:37:01.767Z,46.60
2018-05-03T08:39:29.247Z,51.70
2018-05-03T08:41:56.803Z,47.40
2018-05-03T08:44:25.073Z,43.50
2018-05-03T08:46:54.086Z,46.30
2018-05-03T08:49:21.560Z,46.20
2018-05-03T08:51:49.042Z,44.10
2018-05-03T08:54:16.519Z,45.00
2018-05-03T08:56:44.027Z,45.80
2018-05-03T08:59:11.623Z,45.10
2018-05-03T09:01:39.098Z,42.90
2018-05-03T09:04:06.624Z,40.60
2018-05-03T09:06:34.111Z,39.50
2018-05-03T09:09:01.601Z,41.60
2018-05-03T09:11:29.871Z,41.30
2018-05-03T09:13:57.342Z,41.20
2018-05-03T09:16:24.814Z,40.00
2018-05-03T09:18:52.287Z,42.30
2018-05-03T09:21:19.763Z,40.40
2018-05-03T09:23:47.240Z,39.70
2018-05-03T09:26:14.818Z,38.10
2018-05-03T09:28:43.082Z,37.10
2018-05-03T09:31:10.668Z,37.00
2018-05-03T09:33:38.975Z,34.50
2018-05-03T09:36:06.611Z,34.40
2018-05-03T09:38:34.091Z,33.30
2018-05-03T09:41:01.576Z,31.60
2018-05-03T09:43:29.054Z,32.80
2018-05-03T09:45:56.536Z,32.50
2018-05-03T09:48:24.799Z,30.60
2018-05-03T09:50:52.299Z,30.60
2018-05-03T09:53:20.594Z,30.90
2018-05-03T09:55:48.172Z,30.90
2018-05-03T09:58:15.633Z,30.60
2018-05-03T10:00:43.137Z,29.00
2018-05-03T10:03:10.619Z,28.50
2018-05-03T10:05:38.104Z,27.60
2018-05-03T10:08:05.572Z,28.00
2018-05-03T10:10:33.109Z,28.10
2018-05-03T10:13:00.581Z,31.30
2018-05-03T10:15:28.140Z,29.10
2018-05-03T10:17:55.610Z,29.20
2018-05-03T10:20:23.074Z,28.30
2018-05-03T10:22:50.541Z,28.20
2018-05-03T10:25:18.771Z,26.40
2018-05-03T10:27:46.239Z,26.30
2018-05-03T10:30:14.524Z,24.80
2018-05-03T10:32:42.728Z,24.30
2018-05-03T10:35:10.209Z,24.20
2018-05-03T10:37:37.669Z,22.50
2018-05-03T10:40:05.169Z,21.50
2018-05-03T10:42:32.653Z,24.40
2018-05-03T10:45:00.137Z,22.90
2018-05-03T10:47:27.600Z,25.20
2018-05-03T10:49:55.063Z,23.60
2018-05-03T10:52:23.298Z,23.70
2018-05-03T10:54:50.769Z,23.80
2018-05-03T10:57:18.272Z,24.60
2018-05-03T10:59:45.755Z,26.10
2018-05-03T11:02:13.220Z,27.80
2018-05-03T11:04:40.685Z,28.60
2018-05-03T11:07:08.197Z,27.90
2018-05-03T11:09:35.708Z,26.60
2018-05-03T11:12:03.265Z,28.50
2018-05-03T11:14:30.733Z,29.50
2018-05-03T11:16:58.192Z,29.10
2018-05-03T11:19:26.412Z,29.70
2018-05-03T11:21:53.928Z,29.70
2018-05-03T11:24:21.405Z,29.60
2018-05-03T11:26:48.864Z,28.30
2018-05-03T11:29:16.378Z,28.70
2018-05-03T11:31:43.841Z,29.40
2018-05-03T11:34:11.305Z,30.00
2018-05-03T11:36:39.573Z,34.30
2018-05-03T11:39:07.049Z,34.20
2018-05-03T11:41:34.513Z,36.20
2018-05-03T11:44:02.029Z,35.40
2018-05-03T11:46:29.510Z,36.60
2018-05-03T11:48:56.985Z,37.40
2018-05-03T11:51:24.488Z,38.30
2018-05-03T11:53:51.968Z,39.20
2018-05-03T11:56:19.453Z,36.10
2018-05-03T11:58:46.931Z,34.90
2018-05-03T12:01:14.416Z,33.30
2018-05-03T12:03:41.872Z,36.60
2018-05-03T12:06:09.337Z,35.40
2018-05-03T12:08:36.859Z,33.90
2018-05-03T12:11:04.321Z,32.80
2018-05-03T12:13:31.820Z,33.70
2018-05-03T12:15:59.281Z,32.90
2018-05-03T12:18:26.780Z,31.70
2018-05-03T12:20:54.249Z,31.10
2018-05-03T12:23:21.718Z,30.90
2018-05-03T12:25:49.185Z,28.80
2018-05-03T12:28:16.709Z,30.00
2018-05-03T12:30:44.192Z,31.00
2018-05-03T12:33:11.657Z,29.80
2018-05-03T12:35:39.118Z,29.00
2018-05-03T12:38:07.028Z,27.20
2018-05-03T12:40:34.501Z,28.60
2018-05-03T12:43:01.964Z,27.90
2018-05-03T12:45:30.194Z,32.70
2018-05-03T12:47:57.652Z,32.70
2018-05-03T12:50:25.925Z,28.10
2018-05-03T12:52:53.382Z,28.00
2018-05-03T12:55:20.849Z,28.70
2018-05-03T12:57:48.348Z,29.60
2018-05-03T13:00:15.832Z,29.40
2018-05-03T13:02:43.333Z,30.20
2018-05-03T13:05:10.814Z,34.40
2018-05-03T13:07:38.273Z,32.90
2018-05-03T13:10:05.796Z,33.50
2018-05-03T13:12:33.263Z,32.30
2018-05-03T13:15:00.747Z,33.50
2018-05-03T13:17:28.205Z,30.50
2018-05-03T13:19:55.736Z,31.10
2018-05-03T13:22:23.205Z,32.50
2018-05-03T13:24:50.688Z,32.90
2018-05-03T13:27:18.158Z,34.30
2018-05-03T13:29:45.616Z,35.10
2018-05-03T13:32:13.081Z,35.10
2018-05-03T13:34:41.310Z,35.30
2018-05-03T13:37:08.821Z,35.20
2018-05-03T13:39:36.421Z,36.40
2018-05-03T13:42:05.417Z,36.10
2018-05-03T13:44:32.873Z,36.10
2018-05-03T13:47:00.379Z,36.20
2018-05-03T13:49:27.866Z,35.40
2018-05-03T13:51:55.349Z,33.60
2018-05-03T13:54:22.809Z,35.10
2018-05-03T13:56:50.330Z,35.90
2018-05-03T13:59:17.785Z,36.40
2018-05-03T14:01:45.244Z,35.90
2018-05-03T14:04:12.713Z,36.80
2018-05-03T14:06:40.940Z,37.20
2018-05-03T14:09:08.406Z,37.20
2018-05-03T14:11:36.680Z,35.50
2018-05-03T14:14:04.141Z,35.50
2018-05-03T14:16:31.628Z,36.40
2018-05-03T14:18:59.088Z,36.20
2018-05-03T14:21:26.596Z,36.40
2018-05-03T14:23:54.064Z,36.20
2018-05-03T14:26:21.553Z,37.30
2018-05-03T14:28:49.034Z,36.80
2018-05-03T14:31:16.505Z,37.30
2018-05-03T14:33:44.000Z,39.10
2018-05-03T14:36:11.457Z,39.80
2018-05-03T14:38:38.926Z,41.60
2018-05-03T14:41:06.544Z,41.20
2018-05-03T14:43:34.014Z,41.00
2018-05-03T14:46:01.516Z,40.10
2018-05-03T14:48:28.977Z,40.60
2018-05-03T14:50:56.441Z,40.60
2018-05-03T14:53:23.905Z,38.80
2018-05-03T14:55:51.465Z,40.30
2018-05-03T14:58:18.963Z,40.20
2018-05-03T15:00:46.440Z,41.70
2018-05-03T15:03:13.908Z,42.90
2018-05-03T15:05:41.369Z,44.30
2018-05-03T15:08:09.594Z,42.70
2018-05-03T15:10:37.139Z,42.70
2018-05-03T15:13:04.703Z,44.20
2018-05-03T15:15:32.233Z,42.40
2018-05-03T15:18:00.459Z,42.90
2018-05-03T15:20:27.927Z,42.90
2018-05-03T15:22:55.733Z,43.90
2018-05-03T15:25:24.030Z,42.70
2018-05-03T15:27:51.950Z,42.60
2018-05-03T15:30:20.659Z,42.70
2018-05-03T15:32:48.182Z,43.90
2018-05-03T15:35:16.088Z,42.50
2018-05-03T15:37:44.374Z,43.20
2018-05-03T15:40:11.925Z,42.10
2018-05-03T15:42:40.183Z,44.20
2018-05-03T15:45:08.994Z,43.40
2018-05-03T15:47:36.600Z,43.70
2018-05-03T15:50:04.178Z,44.10
2018-05-03T15:52:31.858Z,44.50
2018-05-03T15:55:00.167Z,43.50
2018-05-03T15:57:28.417Z,44.20
2018-05-03T15:59:56.067Z,44.20
2018-05-03T16:02:24.337Z,44.60
2018-05-03T16:04:51.865Z,44.60
2018-05-03T16:07:19.571Z,44.80
2018-05-03T16:09:47.862Z,45.50
2018-05-03T16:12:16.157Z,47.20
2018-05-03T16:14:44.417Z,46.50
2018-05-03T16:17:12.781Z,48.00
2018-05-03T16:19:40.307Z,48.00
2018-05-03T16:22:07.990Z,48.20
2018-05-03T16:24:37.660Z,48.60
2018-05-03T16:27:05.259Z,49.40
2018-05-03T16:29:32.776Z,48.60
2018-05-03T16:32:00.426Z,48.50
2018-05-03T16:34:27.902Z,48.60
2018-05-03T16:36:55.396Z,48.50
2018-05-03T16:39:22.957Z,48.40
2018-05-03T16:41:51.320Z,49.10
2018-05-03T16:44:18.781Z,49.10
2018-05-03T16:46:47.093Z,49.20
2018-05-03T16:49:15.583Z,49.00
2018-05-03T16:51:43.058Z,48.90
2018-05-03T16:54:10.529Z,49.90
2018-05-03T16:56:38.231Z,49.40
2018-05-03T16:59:06.053Z,49.60
2018-05-03T17:01:34.328Z,50.30
2018-05-03T17:04:02.598Z,50.00
2018-05-03T17:06:30.873Z,51.10
2018-05-03T17:08:59.109Z,50.10
2018-05-03T17:11:26.587Z,50.10
2018-05-03T17:13:54.897Z,51.30
2018-05-03T17:16:22.365Z,51.20
2018-05-03T17:18:49.848Z,50.90
2018-05-03T17:21:17.333Z,51.50
2018-05-03T17:23:45.595Z,51.70
2018-05-03T17:26:13.835Z,52.20
2018-05-03T17:28:41.297Z,52.10
2018-05-03T17:31:08.760Z,51.30
2018-05-03T17:33:36.585Z,52.00
2018-05-03T17:36:04.151Z,52.90
2018-05-03T17:38:31.651Z,52.80
2018-05-03T17:40:59.175Z,53.60
2018-05-03T17:43:26.658Z,54.00
2018-05-03T17:45:54.209Z,54.60
2018-05-03T17:48:21.678Z,54.50
2018-05-03T17:50:49.971Z,54.30
2018-05-03T17:53:18.369Z,54.20
2018-05-03T17:55:45.874Z,54.20
2018-05-03T17:58:13.346Z,55.10
2018-05-03T18:00:40.834Z,56.80
2018-05-03T18:03:08.318Z,55.50
2018-05-03T18:05:35.822Z,55.60
2018-05-03T18:08:03.341Z,56.90
2018-05-03T18:10:30.813Z,56.40
2018-05-03T18:12:58.385Z,58.50
2018-05-03T18:15:25.906Z,57.10
2018-05-03T18:17:53.373Z,58.00
2018-05-03T18:20:20.838Z,57.50
2018-05-03T18:22:48.307Z,58.50
2018-05-03T18:25:16.595Z,59.00
2018-05-03T18:27:44.098Z,58.90
2018-05-03T18:30:14.292Z,59.20
2018-05-03T18:32:41.778Z,59.20
2018-05-03T18:35:09.272Z,59.80
2018-05-03T18:37:36.739Z,59.50
2018-05-03T18:40:04.242Z,59.60
2018-05-03T18:42:31.713Z,59.80
2018-05-03T18:44:59.174Z,60.10
2018-05-03T18:47:27.404Z,59.70
2018-05-03T18:49:54.903Z,59.70
2018-05-03T18:52:22.364Z,59.60
2018-05-03T18:54:49.870Z,59.60
2018-05-03T18:57:18.093Z,60.60
2018-05-03T18:59:45.574Z,60.60
2018-05-03T19:02:13.053Z,60.60
2018-05-03T19:04:40.549Z,60.30
2018-05-03T19:07:08.039Z,60.40
2018-05-03T19:09:35.518Z,60.40
2018-05-03T19:12:02.981Z,61.00
2018-05-03T19:14:30.543Z,60.60
2018-05-03T19:16:57.945Z,60.70
2018-05-03T19:19:25.473Z,61.00
2018-05-03T19:21:52.950Z,61.20
2018-05-03T19:24:20.445Z,61.30
2018-05-03T19:26:47.929Z,62.20
2018-05-03T19:29:15.491Z,61.40
2018-05-03T19:31:43.027Z,62.30
2018-05-03T19:34:11.286Z,61.90
2018-05-03T19:36:38.827Z,61.90
2018-05-03T19:39:07.145Z,62.10
2018-05-03T19:41:34.680Z,62.00
2018-05-03T19:44:02.169Z,62.50
2018-05-03T19:46:29.633Z,62.60
2018-05-03T19:48:57.094Z,62.20
2018-05-03T19:51:24.609Z,62.60
2018-05-03T19:53:52.097Z,62.50
2018-05-03T19:56:19.557Z,62.30
2018-05-03T19:58:47.031Z,62.60
2018-05-03T20:01:14.494Z,63.00
2018-05-03T20:03:42.740Z,63.00
2018-05-03T20:06:10.201Z,62.30
2018-05-03T20:08:37.670Z,62.30
2018-05-03T20:11:06.641Z,62.80
2018-05-03T20:13:34.195Z,62.80
2018-05-03T20:16:02.435Z,62.40
2018-05-03T20:18:29.925Z,62.40
2018-05-03T20:20:57.388Z,63.00
2018-05-03T20:23:24.913Z,62.70
2018-05-03T20:25:52.397Z,64.00
2018-05-03T20:28:19.873Z,63.60
2018-05-03T20:30:47.361Z,64.10
2018-05-03T20:33:14.839Z,63.00
2018-05-03T20:35:42.301Z,65.00
2018-05-03T20:38:09.765Z,63.80
2018-05-03T20:40:37.280Z,63.50
2018-05-03T20:43:04.749Z,63.60
2018-05-03T20:45:32.213Z,63.80
2018-05-03T20:48:00.438Z,64.20
2018-05-03T20:50:27.899Z,64.20
2018-05-03T20:52:56.129Z,64.10
2018-05-03T20:55:24.498Z,64.80
2018-05-03T20:57:52.754Z,64.50
2018-05-03T21:00:20.232Z,64.30
2018-05-03T21:02:47.735Z,64.80
2018-05-03T21:05:15.192Z,65.80
2018-05-03T21:07:42.654Z,64.50
2018-05-03T21:10:10.158Z,66.20
2018-05-03T21:12:37.686Z,65.50
2018-05-03T21:15:05.131Z,66.20
2018-05-03T21:17:32.721Z,67.50
2018-05-03T21:20:01.732Z,67.20
2018-05-03T21:22:29.205Z,67.10
2018-05-03T21:24:56.689Z,66.80
2018-05-03T21:27:24.184Z,67.10
2018-05-03T21:29:51.682Z,66.60
2018-05-03T21:32:19.146Z,66.80
2018-05-03T21:34:46.640Z,67.10
2018-05-03T21:37:14.124Z,66.00
2018-05-03T21:39:41.585Z,66.40
2018-05-03T21:42:09.089Z,65.10
2018-05-03T21:44:36.981Z,65.50
2018-05-03T21:47:04.469Z,65.30
2018-05-03T21:49:31.957Z,65.60
2018-05-03T21:51:59.417Z,65.90
2018-05-03T21:54:26.886Z,65.70
2018-05-03T21:56:54.351Z,65.40
2018-05-03T21:59:22.604Z,65.90
2018-05-03T22:01:50.077Z,65.90
2018-05-03T22:04:17.542Z,65.60
2018-05-03T22:06:45.053Z,65.30
2018-05-03T22:09:13.277Z,65.90
2018-05-03T22:11:40.839Z,65.90
2018-05-03T22:14:09.065Z,66.60
2018-05-03T22:16:37.337Z,67.10
2018-05-03T22:19:04.813Z,66.90
2018-05-03T22:21:32.295Z,66.20
2018-05-03T22:23:59.763Z,68.30
2018-05-03T22:26:27.246Z,66.80
2018-05-03T22:28:54.704Z,67.20
2018-05-03T22:31:22.170Z,67.40
2018-05-03T22:33:50.462Z,68.20
2018-05-03T22:36:18.697Z,67.80
2018-05-03T22:38:46.203Z,67.70
2018-05-03T22:41:13.674Z,66.20
2018-05-03T22:43:41.186Z,66.70
2018-05-03T22:46:08.654Z,67.80
2018-05-03T22:48:36.157Z,66.70
2018-05-03T22:51:03.637Z,67.10
2018-05-03T22:53:31.109Z,66.70
2018-05-03T22:55:58.579Z,67.10
2018-05-03T22:58:26.085Z,66.60
2018-05-03T23:00:53.564Z,67.40
2018-05-03T23:03:21.048Z,67.20
2018-05-03T23:05:48.529Z,68.10
2018-05-03T23:08:16.013Z,68.90
2018-05-03T23:10:43.497Z,66.20
2018-05-03T23:13:10.958Z,66.50
2018-05-03T23:15:38.473Z,67.60
2018-05-03T23:18:05.947Z,67.20
2018-05-03T23:20:33.444Z,67.50
2018-05-03T23:23:00.907Z,66.60
2018-05-03T23:25:28.368Z,67.70
2018-05-03T23:27:56.730Z,67.00
2018-05-03T23:30:24.267Z,67.00
2018-05-03T23:32:51.701Z,67.20
2018-05-03T23:35:19.188Z,65.80
2018-05-03T23:37:46.646Z,66.60
2018-05-03T23:40:14.114Z,65.90
2018-05-03T23:42:41.582Z,68.40
2018-05-03T23:45:09.841Z,67.60
2018-05-03T23:47:37.422Z,67.60
2018-05-03T23:50:04.900Z,67.00
2018-05-03T23:52:32.370Z,67.00
2018-05-03T23:54:59.829Z,67.80
2018-05-03T23:57:27.289Z,66.00
2018-05-03T23:59:55.558Z,68.10
